Time,TemperatureF,DewpointF,PressureIn,WindDirection,WindDirectionDegrees,WindSpeedMPH,WindSpeedGustMPH,Humidity,HourlyPrecipIn,Conditions,Clouds,dailyrainin,SoftwareType,DateUTC
2013-09-06 00:00:00,77.1,37.5,29.93,SSE,152,2.0,2.0,24,0.00,,,0.00,Wunderground v.1.15,2013-09-06 06:00:00,
2013-09-06 00:10:00,76.6,37.1,29.93,SSE,152,1.0,1.0,24,0.00,,,0.00,Wunderground v.1.15,2013-09-06 06:10:00,
2013-09-06 00:20:00,76.4,36.9,29.93,SSE,152,2.0,3.0,24,0.00,,,0.00,Wunderground v.1.15,2013-09-06 06:20:00,
2013-09-06 00:30:00,76.2,36.8,29.93,SSE,152,2.0,2.0,24,0.00,,,0.00,Wunderground v.1.15,2013-09-06 06:30:00,
2013-09-06 00:40:00,76.0,37.6,29.94,SSE,152,2.0,2.0,25,0.00,,,0.00,Wunderground v.1.15,2013-09-06 06:40:00,
2013-09-06 00:50:00,75.6,37.3,29.94,SSE,152,1.0,1.0,25,0.00,,,0.00,Wunderground v.1.15,2013-09-06 06:50:00,
2013-09-06 01:00:00,75.3,37.0,29.94,SSE,152,1.0,1.0,25,0.00,,,0.00,Wunderground v.1.15,2013-09-06 07:00:00,
2013-09-06 01:10:00,75.2,36.9,29.94,SSE,152,0.0,5.0,25,0.00,,,0.00,Wunderground v.1.15,2013-09-06 07:10:00,
2013-09-06 01:20:00,74.8,38.6,29.94,SSE,152,0.0,5.0,27,0.00,,,0.00,Wunderground v.1.15,2013-09-06 07:20:00,
2013-09-06 01:30:00,73.9,38.7,29.94,SSE,152,0.0,5.0,28,0.00,,,0.00,Wunderground v.1.15,2013-09-06 07:30:00,
2013-09-06 01:40:00,72.8,38.7,29.95,SSE,152,0.0,5.0,29,0.00,,,0.00,Wunderground v.1.15,2013-09-06 07:40:00,
2013-09-06 01:50:00,72.5,37.5,29.95,SSE,152,0.0,5.0,28,0.00,,,0.00,Wunderground v.1.15,2013-09-06 07:50:00,
2013-09-06 02:00:00,72.1,39.8,29.95,SSE,152,0.0,5.0,31,0.00,,,0.00,Wunderground v.1.15,2013-09-06 08:00:00,
2013-09-06 02:10:00,71.3,39.9,29.95,SSE,152,0.0,5.0,32,0.00,,,0.00,Wunderground v.1.15,2013-09-06 08:10:00,
2013-09-06 02:20:00,71.3,38.2,29.95,SSE,152,0.0,5.0,30,0.00,,,0.00,Wunderground v.1.15,2013-09-06 08:20:00,
2013-09-06 02:30:00,71.7,40.3,29.95,SSE,152,0.0,5.0,32,0.00,,,0.00,Wunderground v.1.15,2013-09-06 08:30:00,
2013-09-06 02:40:00,70.9,37.9,29.95,SSE,152,0.0,5.0,30,0.00,,,0.00,Wunderground v.1.15,2013-09-06 08:40:00,
2013-09-06 02:50:00,70.6,40.9,29.95,SSE,152,0.0,5.0,34,0.00,,,0.00,Wunderground v.1.15,2013-09-06 08:50:00,
2013-09-06 03:00:00,69.7,39.3,29.96,SSE,152,0.0,5.0,33,0.00,,,0.00,Wunderground v.1.15,2013-09-06 09:00:00,
2013-09-06 03:10:00,69.3,38.9,29.95,SSE,152,0.0,5.0,33,0.00,,,0.00,Wunderground v.1.15,2013-09-06 09:10:00,
2013-09-06 03:20:00,68.8,38.5,29.95,SSE,152,0.0,5.0,33,0.00,,,0.00,Wunderground v.1.15,2013-09-06 09:20:00,
2013-09-06 03:30:00,68.5,39.0,29.95,SSE,152,0.0,5.0,34,0.00,,,0.00,Wunderground v.1.15,2013-09-06 09:30:00,
2013-09-06 03:40:00,68.3,38.8,29.95,SSE,152,0.0,5.0,34,0.00,,,0.00,Wunderground v.1.15,2013-09-06 09:40:00,
2013-09-06 03:50:00,68.2,38.7,29.95,SSE,152,0.0,5.0,34,0.00,,,0.00,Wunderground v.1.15,2013-09-06 09:50:00,
2013-09-06 04:00:00,67.9,38.5,29.95,SSE,152,0.0,5.0,34,0.00,,,0.00,Wunderground v.1.15,2013-09-06 10:00:00,
2013-09-06 04:10:00,67.7,39.0,29.95,SSE,152,0.0,5.0,35,0.00,,,0.00,Wunderground v.1.15,2013-09-06 10:10:00,
2013-09-06 04:20:00,67.8,38.4,29.96,SSE,152,1.0,5.0,34,0.00,,,0.00,Wunderground v.1.15,2013-09-06 10:20:00,
2013-09-06 04:30:00,67.4,38.0,29.96,SSE,152,0.0,5.0,34,0.00,,,0.00,Wunderground v.1.15,2013-09-06 10:30:00,
2013-09-06 04:40:00,66.9,38.3,29.96,SSE,152,0.0,5.0,35,0.00,,,0.00,Wunderground v.1.15,2013-09-06 10:40:00,
2013-09-06 04:50:00,66.2,38.4,29.96,SSE,152,0.0,5.0,36,0.00,,,0.00,Wunderground v.1.15,2013-09-06 10:50:00,
2013-09-06 05:00:00,65.8,38.1,29.96,SSE,152,0.0,5.0,36,0.00,,,0.00,Wunderground v.1.15,2013-09-06 11:00:00,
2013-09-06 05:10:00,65.5,38.5,29.96,SSE,152,0.0,5.0,37,0.00,,,0.00,Wunderground v.1.15,2013-09-06 11:10:00,
2013-09-06 05:20:00,65.0,38.8,29.96,SSE,152,0.0,5.0,38,0.00,,,0.00,Wunderground v.1.15,2013-09-06 11:20:00,
2013-09-06 05:30:00,65.1,38.8,29.96,SSE,152,0.0,5.0,38,0.00,,,0.00,Wunderground v.1.15,2013-09-06 11:30:00,
2013-09-06 05:40:00,64.6,38.4,29.96,SSE,152,1.0,1.0,38,0.00,,,0.00,Wunderground v.1.15,2013-09-06 11:40:00,
2013-09-06 05:50:00,64.1,38.6,29.96,SSE,152,0.0,5.0,39,0.00,,,0.00,Wunderground v.1.15,2013-09-06 11:50:00,
2013-09-06 06:00:00,64.2,39.4,29.96,SSE,152,0.0,5.0,40,0.00,,,0.00,Wunderground v.1.15,2013-09-06 12:00:00,
2013-09-06 06:10:00,63.8,39.6,29.96,SSE,152,0.0,5.0,41,0.00,,,0.00,Wunderground v.1.15,2013-09-06 12:10:00,
2013-09-06 06:20:00,63.1,40.2,29.96,SSE,152,0.0,5.0,43,0.00,,,0.00,Wunderground v.1.15,2013-09-06 12:20:00,
2013-09-06 06:30:00,62.5,40.3,29.97,SSE,152,0.0,5.0,44,0.00,,,0.00,Wunderground v.1.15,2013-09-06 12:30:00,
2013-09-06 06:40:00,62.1,39.9,29.97,SSE,152,0.0,5.0,44,0.00,,,0.00,Wunderground v.1.15,2013-09-06 12:40:00,
2013-09-06 06:50:00,61.7,40.1,29.97,SSE,152,0.0,5.0,45,0.00,,,0.00,Wunderground v.1.15,2013-09-06 12:50:00,
2013-09-06 07:00:00,61.5,40.5,29.98,SSE,152,0.0,5.0,46,0.00,,,0.00,Wunderground v.1.15,2013-09-06 13:00:00,
2013-09-06 07:10:00,61.4,40.4,29.98,SSE,152,0.0,5.0,46,0.00,,,0.00,Wunderground v.1.15,2013-09-06 13:10:00,
2013-09-06 07:20:00,61.8,40.8,29.98,SSE,152,0.0,5.0,46,0.00,,,0.00,Wunderground v.1.15,2013-09-06 13:20:00,
2013-09-06 07:30:00,62.5,40.9,29.98,SSE,152,0.0,5.0,45,0.00,,,0.00,Wunderground v.1.15,2013-09-06 13:30:00,
2013-09-06 07:40:00,63.5,41.2,29.98,SSE,152,0.0,5.0,44,0.00,,,0.00,Wunderground v.1.15,2013-09-06 13:40:00,
2013-09-06 07:50:00,65.1,40.2,29.98,SSE,152,0.0,5.0,40,0.00,,,0.00,Wunderground v.1.15,2013-09-06 13:50:00,
2013-09-06 08:00:00,67.0,39.1,29.98,SSE,152,1.0,1.0,36,0.00,,,0.00,Wunderground v.1.15,2013-09-06 14:00:00,
2013-09-06 08:10:00,67.8,39.9,29.98,SSE,152,2.0,2.0,36,0.00,,,0.00,Wunderground v.1.15,2013-09-06 14:10:00,
2013-09-06 08:20:00,68.3,39.6,29.98,SSE,152,2.0,2.0,35,0.00,,,0.00,Wunderground v.1.15,2013-09-06 14:20:00,
2013-09-06 08:30:00,68.5,39.8,29.99,SSE,152,2.0,2.0,35,0.00,,,0.00,Wunderground v.1.15,2013-09-06 14:30:00,
2013-09-06 08:40:00,68.9,40.1,29.99,SSE,152,2.0,5.0,35,0.00,,,0.00,Wunderground v.1.15,2013-09-06 14:40:00,
2013-09-06 08:50:00,69.5,40.6,29.99,SSE,152,2.0,5.0,35,0.00,,,0.00,Wunderground v.1.15,2013-09-06 14:50:00,
2013-09-06 09:00:00,69.8,40.9,29.99,SSE,152,2.0,2.0,35,0.00,,,0.00,Wunderground v.1.15,2013-09-06 15:00:00,
2013-09-06 09:10:00,70.7,41.7,29.99,SSE,152,1.0,1.0,35,0.00,,,0.00,Wunderground v.1.15,2013-09-06 15:10:00,
2013-09-06 09:20:00,71.5,41.6,29.99,SSE,148,2.0,2.0,34,0.00,,,0.00,Wunderground v.1.15,2013-09-06 15:20:00,
2013-09-06 09:30:00,72.5,41.7,29.99,SSE,148,1.0,5.0,33,0.00,,,0.00,Wunderground v.1.15,2013-09-06 15:30:00,
2013-09-06 09:40:00,73.8,42.9,29.99,SSE,148,1.0,5.0,33,0.00,,,0.00,Wunderground v.1.15,2013-09-06 15:40:00,
2013-09-06 09:50:00,74.6,42.0,29.99,SSE,147,2.0,5.0,31,0.00,,,0.00,Wunderground v.1.15,2013-09-06 15:50:00,
2013-09-06 10:00:00,76.1,41.5,29.99,SSE,147,1.0,5.0,29,0.00,,,0.00,Wunderground v.1.15,2013-09-06 16:00:00,
2013-09-06 10:10:00,77.8,42.1,29.98,SSE,147,1.0,1.0,28,0.00,,,0.00,Wunderground v.1.15,2013-09-06 16:10:00,
2013-09-06 10:20:00,78.7,41.9,29.98,SSE,147,0.0,5.0,27,0.00,,,0.00,Wunderground v.1.15,2013-09-06 16:20:00,
2013-09-06 10:30:00,80.0,42.0,29.98,SSE,147,0.0,5.0,26,0.00,,,0.00,Wunderground v.1.15,2013-09-06 16:30:00,
2013-09-06 10:40:00,79.9,40.9,29.98,SSE,147,1.0,1.0,25,0.00,,,0.00,Wunderground v.1.15,2013-09-06 16:40:00,
2013-09-06 10:50:00,81.1,40.9,29.97,SSE,147,0.0,5.0,24,0.00,,,0.00,Wunderground v.1.15,2013-09-06 16:50:00,
2013-09-06 11:00:00,80.9,41.8,29.97,SSE,159,3.0,5.0,25,0.00,,,0.00,Wunderground v.1.15,2013-09-06 17:00:00,
2013-09-06 11:10:00,80.5,42.4,29.97,South,176,3.0,3.0,26,0.00,,,0.00,Wunderground v.1.15,2013-09-06 17:10:00,
2013-09-06 11:20:00,80.8,41.7,29.96,South,183,5.0,5.0,25,0.00,,,0.00,Wunderground v.1.15,2013-09-06 17:20:00,
2013-09-06 11:30:00,81.6,41.3,29.96,SSW,201,3.0,5.0,24,0.00,,,0.00,Wunderground v.1.15,2013-09-06 17:30:00,
2013-09-06 11:40:00,82.6,41.0,29.95,SSW,211,3.0,5.0,23,0.00,,,0.00,Wunderground v.1.15,2013-09-06 17:40:00,
2013-09-06 11:50:00,82.4,40.9,29.95,SSW,199,4.0,4.0,23,0.00,,,0.00,Wunderground v.1.15,2013-09-06 17:50:00,
2013-09-06 12:00:00,82.9,41.3,29.94,SSW,200,3.0,5.0,23,0.00,,,0.00,Wunderground v.1.15,2013-09-06 18:00:00,
2013-09-06 12:10:00,83.4,40.6,29.94,WSW,241,4.0,4.0,22,0.00,,,0.00,Wunderground v.1.15,2013-09-06 18:10:00,
2013-09-06 12:20:00,83.9,42.1,29.93,SSE,151,4.0,4.0,23,0.00,,,0.00,Wunderground v.1.15,2013-09-06 18:20:00,
2013-09-06 12:30:00,84.6,40.4,29.93,SSE,154,3.0,5.0,21,0.00,,,0.00,Wunderground v.1.15,2013-09-06 18:30:00,
2013-09-06 12:40:00,84.8,40.5,29.92,SSW,197,3.0,5.0,21,0.00,,,0.00,Wunderground v.1.15,2013-09-06 18:40:00,
2013-09-06 12:50:00,84.9,40.6,29.92,South,169,2.0,5.0,21,0.00,,,0.00,Wunderground v.1.15,2013-09-06 18:50:00,
2013-09-06 13:00:00,84.7,40.4,29.91,SSW,192,3.0,5.0,21,0.00,,,0.00,Wunderground v.1.15,2013-09-06 19:00:00,
2013-09-06 13:10:00,85.8,41.3,29.91,South,187,2.0,5.0,21,0.00,,,0.00,Wunderground v.1.15,2013-09-06 19:10:00,
2013-09-06 13:20:00,86.0,41.5,29.90,South,172,4.0,4.0,21,0.00,,,0.00,Wunderground v.1.15,2013-09-06 19:20:00,
2013-09-06 13:30:00,86.9,42.3,29.90,SE,138,4.0,4.0,21,0.00,,,0.00,Wunderground v.1.15,2013-09-06 19:30:00,
2013-09-06 13:40:00,86.4,40.6,29.89,SSW,197,3.0,7.0,20,0.00,,,0.00,Wunderground v.1.15,2013-09-06 19:40:00,
2013-09-06 13:50:00,86.4,40.6,29.89,SSE,155,4.0,4.0,20,0.00,,,0.00,Wunderground v.1.15,2013-09-06 19:50:00,
2013-09-06 14:00:00,87.1,41.2,29.88,South,182,3.0,11.0,20,0.00,,,0.00,Wunderground v.1.15,2013-09-06 20:00:00,
2013-09-06 14:10:00,87.5,40.2,29.87,South,182,3.0,3.0,19,0.00,,,0.00,Wunderground v.1.15,2013-09-06 20:10:00,
2013-09-06 14:20:00,88.3,40.8,29.86,SSW,197,3.0,3.0,19,0.00,,,0.00,Wunderground v.1.15,2013-09-06 20:20:00,
2013-09-06 14:30:00,88.1,40.6,29.86,SSW,208,3.0,5.0,19,0.00,,,0.00,Wunderground v.1.15,2013-09-06 20:30:00,
2013-09-06 14:40:00,88.3,40.8,29.86,SSE,151,5.0,5.0,19,0.00,,,0.00,Wunderground v.1.15,2013-09-06 20:40:00,
2013-09-06 14:50:00,89.0,41.4,29.85,SW,217,5.0,5.0,19,0.00,,,0.00,Wunderground v.1.15,2013-09-06 20:50:00,
2013-09-06 15:00:00,89.2,41.5,29.85,SSE,155,4.0,6.0,19,0.00,,,0.00,Wunderground v.1.15,2013-09-06 21:00:00,
2013-09-06 15:10:00,89.3,41.6,29.84,South,188,4.0,8.0,19,0.00,,,0.00,Wunderground v.1.15,2013-09-06 21:10:00,
2013-09-06 15:20:00,89.0,42.7,29.84,SSW,192,6.0,6.0,20,0.00,,,0.00,Wunderground v.1.15,2013-09-06 21:20:00,
2013-09-06 15:30:00,89.0,42.7,29.83,SW,219,4.0,12.0,20,0.00,,,0.00,Wunderground v.1.15,2013-09-06 21:30:00,
2013-09-06 15:40:00,88.6,42.4,29.83,SW,229,6.0,6.0,20,0.00,,,0.00,Wunderground v.1.15,2013-09-06 21:40:00,
2013-09-06 15:50:00,88.6,42.4,29.82,SSW,199,6.0,8.0,20,0.00,,,0.00,Wunderground v.1.15,2013-09-06 21:50:00,
2013-09-06 16:00:00,89.0,42.7,29.82,SSW,199,7.0,7.0,20,0.00,,,0.00,Wunderground v.1.15,2013-09-06 22:00:00,
2013-09-06 16:10:00,89.6,41.9,29.81,SW,232,6.0,6.0,19,0.00,,,0.00,Wunderground v.1.15,2013-09-06 22:10:00,
2013-09-06 16:20:00,89.3,41.6,29.81,SW,218,6.0,10.0,19,0.00,,,0.00,Wunderground v.1.15,2013-09-06 22:20:00,
2013-09-06 16:30:00,89.1,41.5,29.81,SW,235,5.0,5.0,19,0.00,,,0.00,Wunderground v.1.15,2013-09-06 22:30:00,
2013-09-06 16:40:00,88.7,41.1,29.80,WSW,237,6.0,6.0,19,0.00,,,0.00,Wunderground v.1.15,2013-09-06 22:40:00,
2013-09-06 16:50:00,89.0,40.0,29.80,SSW,205,7.0,7.0,18,0.00,,,0.00,Wunderground v.1.15,2013-09-06 22:50:00,
2013-09-06 17:00:00,89.3,40.2,29.80,SSE,166,6.0,11.0,18,0.00,,,0.00,Wunderground v.1.15,2013-09-06 23:00:00,
2013-09-06 17:10:00,88.8,39.8,29.80,SSW,207,7.0,7.0,18,0.00,,,0.00,Wunderground v.1.15,2013-09-06 23:10:00,
2013-09-06 17:20:00,89.6,40.5,29.79,SSW,209,5.0,5.0,18,0.00,,,0.00,Wunderground v.1.15,2013-09-06 23:20:00,
2013-09-06 17:30:00,89.5,41.8,29.79,SSE,163,5.0,5.0,19,0.00,,,0.00,Wunderground v.1.15,2013-09-06 23:30:00,
2013-09-06 17:40:00,88.6,41.1,29.79,South,191,6.0,6.0,19,0.00,,,0.00,Wunderground v.1.15,2013-09-06 23:40:00,
2013-09-06 17:50:00,88.8,41.2,29.79,SW,221,6.0,6.0,19,0.00,,,0.00,Wunderground v.1.15,2013-09-06 23:50:00,
2013-09-06 18:00:00,89.1,41.5,29.79,SSW,209,5.0,5.0,19,0.00,,,0.00,Wunderground v.1.15,2013-09-07 00:00:00,
2013-09-06 18:10:00,89.0,41.4,29.79,SW,219,5.0,6.0,19,0.00,,,0.00,Wunderground v.1.15,2013-09-07 00:10:00,
2013-09-06 18:20:00,88.4,40.9,29.78,SSW,208,6.0,6.0,19,0.00,,,0.00,Wunderground v.1.15,2013-09-07 00:20:00,
2013-09-06 18:30:00,88.4,42.2,29.78,South,187,5.0,8.0,20,0.00,,,0.00,Wunderground v.1.15,2013-09-07 00:30:00,
2013-09-06 18:40:00,88.1,42.0,29.78,South,170,4.0,5.0,20,0.00,,,0.00,Wunderground v.1.15,2013-09-07 00:40:00,
2013-09-06 18:50:00,87.9,41.8,29.78,SSE,164,4.0,4.0,20,0.00,,,0.00,Wunderground v.1.15,2013-09-07 00:50:00,
2013-09-06 19:00:00,87.6,41.6,29.78,South,190,3.0,5.0,20,0.00,,,0.00,Wunderground v.1.15,2013-09-07 01:00:00,
2013-09-06 19:10:00,87.1,41.2,29.78,SSW,193,4.0,4.0,20,0.00,,,0.00,Wunderground v.1.15,2013-09-07 01:10:00,
2013-09-06 19:20:00,86.6,40.7,29.78,SSW,202,4.0,4.0,20,0.00,,,0.00,Wunderground v.1.15,2013-09-07 01:20:00,
2013-09-06 19:30:00,86.3,40.5,29.78,South,189,3.0,6.0,20,0.00,,,0.00,Wunderground v.1.15,2013-09-07 01:30:00,
2013-09-06 19:40:00,85.9,41.4,29.78,South,187,2.0,5.0,21,0.00,,,0.00,Wunderground v.1.15,2013-09-07 01:40:00,
2013-09-06 19:50:00,85.5,41.1,29.79,South,173,2.0,5.0,21,0.00,,,0.00,Wunderground v.1.15,2013-09-07 01:50:00,
2013-09-06 20:00:00,85.1,40.8,29.79,South,171,2.0,5.0,21,0.00,,,0.00,Wunderground v.1.15,2013-09-07 02:00:00,
2013-09-06 20:10:00,84.8,40.5,29.80,South,171,2.0,5.0,21,0.00,,,0.00,Wunderground v.1.15,2013-09-07 02:10:00,
2013-09-06 20:20:00,84.2,41.2,29.80,South,171,1.0,1.0,22,0.00,,,0.00,Wunderground v.1.15,2013-09-07 02:20:00,
2013-09-06 20:30:00,83.3,41.6,29.80,South,171,0.0,5.0,23,0.00,,,0.00,Wunderground v.1.15,2013-09-07 02:30:00,
2013-09-06 20:40:00,82.7,42.2,29.81,South,171,0.0,5.0,24,0.00,,,0.00,Wunderground v.1.15,2013-09-07 02:40:00,
2013-09-06 20:50:00,82.0,42.7,29.81,South,171,0.0,5.0,25,0.00,,,0.00,Wunderground v.1.15,2013-09-07 02:50:00,
2013-09-06 21:00:00,81.0,42.9,29.81,South,171,0.0,5.0,26,0.00,,,0.00,Wunderground v.1.15,2013-09-07 03:00:00,
2013-09-06 21:10:00,80.2,44.1,29.81,South,171,0.0,5.0,28,0.00,,,0.00,Wunderground v.1.15,2013-09-07 03:10:00,
2013-09-06 21:20:00,79.4,43.4,29.82,South,171,0.0,5.0,28,0.00,,,0.00,Wunderground v.1.15,2013-09-07 03:20:00,
2013-09-06 21:30:00,78.7,43.8,29.82,South,171,0.0,5.0,29,0.00,,,0.00,Wunderground v.1.15,2013-09-07 03:30:00,
2013-09-06 21:40:00,78.2,44.2,29.82,South,171,0.0,5.0,30,0.00,,,0.00,Wunderground v.1.15,2013-09-07 03:40:00,
2013-09-06 21:50:00,77.5,43.6,29.82,South,171,0.0,5.0,30,0.00,,,0.00,Wunderground v.1.15,2013-09-07 03:50:00,
2013-09-06 22:00:00,77.3,44.3,29.83,South,171,0.0,5.0,31,0.00,,,0.00,Wunderground v.1.15,2013-09-07 04:00:00,
2013-09-06 22:10:00,77.1,44.1,29.83,South,171,0.0,5.0,31,0.00,,,0.00,Wunderground v.1.15,2013-09-07 04:10:00,
2013-09-06 22:20:00,78.0,43.2,29.84,South,171,1.0,1.0,29,0.00,,,0.00,Wunderground v.1.15,2013-09-07 04:20:00,
2013-09-06 22:30:00,78.6,43.7,29.84,South,171,1.0,1.0,29,0.00,,,0.00,Wunderground v.1.15,2013-09-07 04:30:00,
2013-09-06 22:40:00,78.9,44.8,29.85,SSE,165,1.0,5.0,30,0.00,,,0.00,Wunderground v.1.15,2013-09-07 04:40:00,
2013-09-06 22:50:00,79.0,44.9,29.84,SSE,157,1.0,1.0,30,0.00,,,0.00,Wunderground v.1.15,2013-09-07 04:50:00,
2013-09-06 23:00:00,78.4,45.3,29.85,SSE,157,0.0,5.0,31,0.00,,,0.00,Wunderground v.1.15,2013-09-07 05:00:00,
2013-09-06 23:10:00,77.9,45.7,29.85,SSE,157,0.0,5.0,32,0.00,,,0.00,Wunderground v.1.15,2013-09-07 05:10:00,
2013-09-06 23:20:00,77.5,46.9,29.85,SSE,157,0.0,5.0,34,0.00,,,0.00,Wunderground v.1.15,2013-09-07 05:20:00,
2013-09-06 23:30:00,77.8,47.2,29.85,SSE,157,0.0,5.0,34,0.00,,,0.00,Wunderground v.1.15,2013-09-07 05:30:00,
2013-09-06 23:40:00,77.9,48.0,29.86,SSE,157,0.0,5.0,35,0.00,,,0.00,Wunderground v.1.15,2013-09-07 05:40:00,
2013-09-06 23:50:00,77.6,47.0,29.86,SSE,157,1.0,1.0,34,0.00,,,0.00,Wunderground v.1.15,2013-09-07 05:50:00,